createdAt,value
2022-12-06T00:00:08.152Z,1.70
2022-12-06T00:02:43.578Z,1.70
2022-12-06T00:07:45.103Z,1.70
2022-12-06T00:23:31.609Z,1.80
2022-12-06T00:26:01.015Z,1.70
2022-12-06T00:31:10.537Z,1.70
2022-12-06T00:33:43.350Z,1.80
2022-12-06T00:36:26.935Z,1.90
2022-12-06T00:46:46.799Z,1.80
2022-12-06T01:06:39.229Z,2.00
2022-12-06T01:09:10.503Z,1.80
2022-12-06T01:11:37.783Z,2.00
2022-12-06T01:14:04.638Z,1.90
2022-12-06T01:16:32.170Z,1.90
2022-12-06T01:19:02.732Z,2.00
2022-12-06T01:21:30.116Z,1.90
2022-12-06T01:23:57.655Z,2.00
2022-12-06T01:26:32.970Z,2.00
2022-12-06T01:29:00.633Z,1.90
2022-12-06T01:31:35.430Z,1.90
2022-12-06T01:34:05.436Z,1.80
2022-12-06T01:36:32.709Z,1.70
2022-12-06T01:39:01.115Z,1.80
2022-12-06T01:43:55.962Z,2.00
2022-12-06T01:48:54.936Z,2.00
2022-12-06T01:51:22.391Z,1.90
2022-12-06T01:53:50.769Z,1.80
2022-12-06T01:56:18.391Z,1.70
2022-12-06T01:58:46.901Z,1.80
2022-12-06T02:03:42.343Z,1.80
2022-12-06T02:06:09.512Z,2.00
2022-12-06T02:08:37.800Z,2.00
2022-12-06T02:11:05.193Z,2.10
2022-12-06T02:13:34.089Z,2.00
2022-12-06T02:16:25.665Z,1.90
2022-12-06T02:19:29.434Z,1.90
2022-12-06T02:22:08.219Z,1.90
2022-12-06T02:25:05.442Z,1.70
2022-12-06T02:30:32.557Z,1.70
2022-12-06T02:33:05.733Z,1.70
2022-12-06T02:35:55.415Z,1.70
2022-12-06T02:38:43.876Z,1.80
2022-12-06T02:41:19.526Z,1.70
2022-12-06T02:43:53.772Z,1.80
2022-12-06T02:46:23.253Z,1.80
2022-12-06T02:48:52.678Z,1.70
2022-12-06T02:51:21.000Z,1.60
2022-12-06T02:53:51.825Z,1.60
2022-12-06T02:56:19.263Z,1.70
2022-12-06T02:58:46.713Z,1.70
2022-12-06T03:01:30.922Z,1.60
2022-12-06T03:04:12.676Z,1.40
2022-12-06T03:09:25.984Z,1.50
2022-12-06T03:12:30.632Z,1.80
2022-12-06T03:15:16.065Z,1.80
2022-12-06T03:20:19.412Z,1.80
2022-12-06T03:22:51.731Z,1.90
2022-12-06T03:25:18.825Z,1.90
2022-12-06T03:27:48.403Z,1.90
2022-12-06T03:30:15.999Z,1.80
2022-12-06T03:32:46.862Z,1.50
2022-12-06T03:35:17.989Z,1.60
2022-12-06T03:37:49.547Z,1.60
2022-12-06T03:40:28.589Z,1.50
2022-12-06T03:42:56.116Z,1.50
2022-12-06T03:45:28.267Z,1.40
2022-12-06T03:48:04.699Z,1.40
2022-12-06T03:50:37.341Z,1.40
2022-12-06T03:53:04.529Z,1.60
2022-12-06T03:55:31.240Z,1.50
2022-12-06T03:57:58.114Z,1.40
2022-12-06T04:02:52.093Z,1.50
2022-12-06T04:05:19.202Z,1.40
2022-12-06T04:07:46.042Z,1.40
2022-12-06T04:15:25.869Z,1.60
2022-12-06T04:18:10.712Z,1.80
2022-12-06T04:21:03.650Z,1.60
2022-12-06T04:23:33.852Z,1.70
2022-12-06T04:37:04.833Z,2.00
2022-12-06T04:39:32.233Z,2.00
2022-12-06T04:42:18.045Z,2.00
2022-12-06T04:44:45.189Z,2.00
2022-12-06T04:47:12.067Z,2.00
2022-12-06T04:52:07.314Z,2.10
2022-12-06T04:54:34.647Z,1.90
2022-12-06T04:57:02.137Z,1.80
2022-12-06T04:59:29.723Z,1.90
2022-12-06T05:01:57.012Z,1.90
2022-12-06T05:06:52.438Z,1.70
2022-12-06T05:09:19.419Z,1.70
2022-12-06T05:19:07.957Z,1.80
2022-12-06T05:21:34.729Z,1.70
2022-12-06T05:24:01.500Z,1.60
2022-12-06T05:26:29.471Z,1.60
2022-12-06T05:28:57.630Z,1.50
2022-12-06T05:31:25.664Z,1.70
2022-12-06T05:33:53.305Z,1.70
2022-12-06T05:36:25.863Z,1.70
2022-12-06T05:38:53.846Z,1.90
2022-12-06T05:41:22.258Z,1.90
2022-12-06T05:43:49.170Z,2.00
2022-12-06T05:46:16.355Z,1.90
2022-12-06T05:53:37.451Z,1.80
2022-12-06T05:56:09.710Z,1.80
2022-12-06T05:58:37.181Z,1.70
2022-12-06T06:01:05.559Z,1.90
2022-12-06T06:03:32.604Z,2.00
2022-12-06T06:06:00.947Z,2.00
2022-12-06T06:08:28.850Z,2.10
2022-12-06T06:10:56.672Z,2.00
2022-12-06T06:13:23.778Z,1.90
2022-12-06T06:15:50.861Z,2.00
2022-12-06T06:18:18.770Z,2.10
2022-12-06T06:20:50.730Z,2.20
2022-12-06T06:23:18.655Z,2.30
2022-12-06T06:25:46.004Z,2.10
2022-12-06T06:30:40.112Z,2.20
2022-12-06T06:35:34.132Z,2.30
2022-12-06T06:38:01.320Z,2.30
2022-12-06T06:40:28.922Z,2.40
2022-12-06T06:42:56.663Z,2.40
2022-12-06T06:45:28.762Z,2.40
2022-12-06T06:55:17.232Z,2.30
2022-12-06T06:57:44.031Z,2.30
2022-12-06T07:00:11.501Z,2.40
2022-12-06T07:02:39.551Z,2.40
2022-12-06T07:05:07.047Z,2.50
2022-12-06T07:07:33.995Z,2.40
2022-12-06T07:10:01.078Z,2.40
2022-12-06T07:12:27.927Z,2.40
2022-12-06T07:14:54.707Z,2.40
2022-12-06T07:17:21.463Z,2.40
2022-12-06T07:24:46.605Z,2.40
2022-12-06T07:27:16.082Z,2.40
2022-12-06T07:34:37.039Z,2.60
2022-12-06T07:37:06.406Z,2.80
2022-12-06T07:45:02.184Z,2.80
2022-12-06T07:47:37.268Z,3.10
2022-12-06T07:50:07.091Z,3.00
2022-12-06T07:52:35.897Z,2.80
2022-12-06T07:55:04.245Z,2.80
2022-12-06T07:57:31.101Z,2.80
2022-12-06T07:59:58.181Z,3.00
2022-12-06T08:02:27.084Z,3.00
2022-12-06T08:04:54.888Z,2.90
2022-12-06T08:07:23.276Z,2.90
2022-12-06T08:09:51.118Z,2.90
2022-12-06T08:12:17.906Z,3.10
2022-12-06T08:14:44.648Z,3.10
2022-12-06T08:17:11.938Z,3.10
2022-12-06T08:22:05.987Z,3.20
2022-12-06T08:24:32.775Z,3.20
2022-12-06T08:27:00.173Z,3.20
2022-12-06T08:29:27.243Z,3.20
2022-12-06T08:31:54.048Z,3.20
2022-12-06T08:34:21.560Z,3.20
2022-12-06T08:36:48.535Z,3.30
2022-12-06T08:39:15.296Z,3.30
2022-12-06T08:41:58.337Z,3.30
2022-12-06T08:44:27.497Z,3.60
2022-12-06T08:46:55.315Z,3.60
2022-12-06T08:49:24.060Z,3.50
2022-12-06T08:51:51.507Z,3.50
2022-12-06T08:54:21.227Z,3.50
2022-12-06T08:56:48.378Z,3.60
2022-12-06T08:59:15.424Z,3.60
2022-12-06T09:01:42.840Z,3.60
2022-12-06T09:04:10.691Z,3.70
2022-12-06T09:06:40.185Z,3.70
2022-12-06T09:09:08.501Z,3.80
2022-12-06T09:11:35.708Z,3.80
2022-12-06T09:14:02.820Z,3.90
2022-12-06T09:18:57.805Z,4.00
2022-12-06T09:21:26.485Z,4.00
2022-12-06T09:23:57.577Z,4.10
2022-12-06T09:26:25.280Z,4.10
2022-12-06T09:28:53.556Z,4.10
2022-12-06T09:31:20.391Z,4.20
2022-12-06T09:33:47.574Z,4.30
2022-12-06T09:36:21.294Z,4.30
2022-12-06T09:38:54.032Z,4.40
2022-12-06T09:41:48.967Z,4.30
2022-12-06T09:44:25.579Z,4.30
2022-12-06T09:49:43.713Z,4.40
2022-12-06T09:55:00.233Z,4.60
2022-12-06T09:57:51.092Z,4.60
2022-12-06T10:00:23.778Z,4.60
2022-12-06T10:03:28.157Z,4.60
2022-12-06T10:06:09.298Z,4.60
2022-12-06T10:08:59.811Z,4.60
2022-12-06T10:11:29.744Z,4.50
2022-12-06T10:14:43.915Z,4.50
2022-12-06T10:17:51.896Z,4.60
2022-12-06T10:20:37.194Z,4.50
2022-12-06T10:23:30.746Z,4.50
2022-12-06T10:26:14.958Z,4.70
2022-12-06T10:31:29.200Z,4.80
2022-12-06T10:34:12.226Z,4.80
2022-12-06T10:37:15.349Z,4.70
2022-12-06T10:39:48.752Z,4.70
2022-12-06T10:42:27.439Z,4.80
2022-12-06T10:45:01.767Z,4.70
2022-12-06T10:47:34.584Z,4.80
2022-12-06T10:50:07.384Z,4.90
2022-12-06T10:52:48.819Z,4.90
2022-12-06T10:55:41.213Z,4.90
2022-12-06T10:58:16.984Z,5.00
2022-12-06T11:01:07.666Z,4.90
2022-12-06T11:03:43.388Z,4.90
2022-12-06T11:06:17.468Z,5.00
2022-12-06T11:08:52.895Z,5.10
2022-12-06T11:11:33.128Z,5.10
2022-12-06T11:14:38.009Z,5.10
2022-12-06T11:17:12.127Z,5.10
2022-12-06T11:20:06.050Z,5.00
2022-12-06T11:25:09.164Z,5.10
2022-12-06T11:27:47.064Z,5.10
2022-12-06T11:30:19.937Z,5.10
2022-12-06T11:32:49.820Z,5.10
2022-12-06T11:35:21.356Z,5.10
2022-12-06T11:37:51.781Z,5.20
2022-12-06T11:40:28.887Z,5.10
2022-12-06T11:42:59.099Z,5.00
2022-12-06T11:45:38.293Z,5.00
2022-12-06T11:48:26.121Z,5.10
2022-12-06T11:50:53.808Z,5.10
2022-12-06T11:53:27.292Z,5.10
2022-12-06T11:55:58.078Z,5.10
2022-12-06T11:58:27.916Z,5.00
2022-12-06T12:01:12.029Z,5.00
2022-12-06T12:03:41.206Z,5.00
2022-12-06T12:06:27.141Z,5.10
2022-12-06T12:09:06.116Z,5.10
2022-12-06T12:11:37.682Z,5.00
2022-12-06T12:14:17.285Z,5.00
2022-12-06T12:16:48.386Z,5.10
2022-12-06T12:19:40.938Z,5.10
2022-12-06T12:22:39.049Z,5.20
2022-12-06T12:25:27.517Z,5.20
2022-12-06T12:27:59.441Z,5.20
2022-12-06T12:30:29.262Z,5.10
2022-12-06T12:33:09.901Z,5.20
2022-12-06T12:35:37.873Z,5.30
2022-12-06T12:38:09.436Z,5.20
2022-12-06T12:40:43.177Z,5.20
2022-12-06T12:43:12.958Z,5.20
2022-12-06T12:46:02.699Z,5.30
2022-12-06T12:48:30.566Z,5.20
2022-12-06T12:51:04.146Z,5.10
2022-12-06T12:53:38.305Z,5.10
2022-12-06T12:56:16.919Z,5.00
2022-12-06T12:58:46.258Z,5.10
2022-12-06T13:01:25.345Z,5.00
2022-12-06T13:03:57.366Z,5.00
2022-12-06T13:09:19.636Z,5.10
2022-12-06T13:11:52.396Z,5.10
2022-12-06T13:14:22.699Z,5.10
2022-12-06T13:16:56.325Z,5.10
2022-12-06T13:19:31.003Z,5.10
2022-12-06T13:22:03.396Z,5.10
2022-12-06T13:24:32.903Z,5.00
2022-12-06T13:29:44.375Z,4.90
2022-12-06T13:32:22.058Z,4.90
2022-12-06T13:35:03.090Z,4.90
2022-12-06T13:37:30.070Z,5.00
2022-12-06T13:39:57.877Z,5.10
2022-12-06T13:42:36.719Z,5.10
2022-12-06T13:45:06.291Z,5.10
2022-12-06T13:50:14.716Z,4.90
2022-12-06T13:52:47.251Z,5.00
2022-12-06T13:55:26.383Z,4.90
2022-12-06T13:58:16.317Z,4.80
2022-12-06T14:00:43.137Z,4.90
2022-12-06T14:03:18.964Z,4.90
2022-12-06T14:08:22.961Z,4.90
2022-12-06T14:10:49.852Z,4.90
2022-12-06T14:13:21.639Z,4.90
2022-12-06T14:15:51.344Z,4.90
2022-12-06T14:18:27.603Z,4.90
2022-12-06T14:20:56.865Z,4.80
2022-12-06T14:23:28.937Z,4.80
2022-12-06T14:26:16.411Z,4.80
2022-12-06T14:28:43.957Z,4.90
2022-12-06T14:31:26.079Z,4.90
2022-12-06T14:33:54.458Z,4.90
2022-12-06T14:36:28.775Z,4.90
2022-12-06T14:39:06.301Z,4.80
2022-12-06T14:41:57.401Z,4.80
2022-12-06T14:44:31.073Z,4.80
2022-12-06T14:46:58.780Z,4.80
2022-12-06T14:49:47.575Z,5.00
2022-12-06T14:52:31.315Z,4.90
2022-12-06T14:55:18.628Z,4.90
2022-12-06T14:57:54.853Z,4.90
2022-12-06T15:00:33.364Z,4.90
2022-12-06T15:03:22.430Z,4.70
2022-12-06T15:06:08.995Z,4.70
2022-12-06T15:08:38.446Z,4.60
2022-12-06T15:11:11.222Z,4.70
2022-12-06T15:13:39.145Z,4.80
2022-12-06T15:16:09.011Z,4.60
2022-12-06T15:18:40.603Z,4.80
2022-12-06T15:21:15.706Z,4.70
2022-12-06T15:23:48.689Z,4.70
2022-12-06T15:26:15.606Z,4.60
2022-12-06T15:28:42.543Z,4.60
2022-12-06T15:31:29.956Z,4.50
2022-12-06T15:33:57.222Z,4.40
2022-12-06T15:36:30.943Z,4.40
2022-12-06T15:38:57.878Z,4.40
2022-12-06T15:41:30.015Z,4.40
2022-12-06T15:43:59.629Z,4.40
2022-12-06T15:46:29.057Z,4.40
2022-12-06T15:48:56.581Z,4.30
2022-12-06T15:51:24.973Z,4.30
2022-12-06T15:53:52.200Z,4.40
2022-12-06T15:56:22.612Z,4.40
2022-12-06T15:58:50.579Z,4.50
2022-12-06T16:01:44.618Z,4.40
2022-12-06T16:04:17.466Z,4.40
2022-12-06T16:06:45.291Z,4.40
2022-12-06T16:09:13.951Z,4.10
2022-12-06T16:11:41.385Z,4.10
2022-12-06T16:14:08.568Z,4.10
2022-12-06T16:16:41.496Z,4.20
2022-12-06T16:19:10.318Z,4.10
2022-12-06T16:21:50.657Z,4.30
2022-12-06T16:24:17.717Z,4.30
2022-12-06T16:26:45.621Z,4.10
2022-12-06T16:29:23.198Z,4.00
2022-12-06T16:34:20.727Z,4.00
2022-12-06T16:37:04.466Z,4.00
2022-12-06T16:39:33.837Z,4.00
2022-12-06T16:42:01.464Z,3.90
2022-12-06T16:44:28.268Z,3.90
2022-12-06T16:46:55.160Z,4.00
2022-12-06T16:52:10.113Z,4.10
2022-12-06T16:57:10.151Z,4.10
2022-12-06T16:59:37.157Z,4.00
2022-12-06T17:02:07.185Z,4.00
2022-12-06T17:04:36.914Z,3.90
2022-12-06T17:14:37.324Z,3.30
2022-12-06T17:17:04.553Z,3.30
2022-12-06T17:19:33.308Z,3.40
2022-12-06T17:22:07.383Z,3.40
2022-12-06T17:31:56.939Z,3.50
2022-12-06T17:54:49.710Z,3.20
2022-12-06T17:57:20.726Z,3.30
2022-12-06T17:59:48.323Z,3.30
2022-12-06T18:02:24.032Z,3.30
2022-12-06T18:04:52.572Z,3.30
2022-12-06T18:07:20.528Z,3.30
2022-12-06T18:09:47.341Z,3.40
2022-12-06T18:12:16.227Z,3.40
2022-12-06T18:14:43.942Z,3.50
2022-12-06T18:17:11.271Z,3.60
2022-12-06T18:19:40.400Z,3.60
2022-12-06T18:22:07.900Z,3.60
2022-12-06T18:24:36.068Z,3.60
2022-12-06T18:27:04.877Z,3.60
2022-12-06T18:29:32.702Z,3.60
2022-12-06T18:31:59.594Z,3.60
2022-12-06T18:34:26.486Z,3.50
2022-12-06T18:36:53.515Z,3.40
2022-12-06T18:39:24.638Z,3.40
2022-12-06T18:41:53.340Z,3.40
2022-12-06T18:44:20.209Z,3.60
2022-12-06T18:49:14.915Z,3.50
2022-12-06T18:51:42.691Z,3.60
2022-12-06T18:54:19.628Z,3.60
2022-12-06T18:59:13.567Z,3.60
2022-12-06T19:01:41.695Z,3.60
2022-12-06T19:04:13.261Z,3.40
2022-12-06T19:06:40.240Z,3.40
2022-12-06T19:09:13.534Z,3.50
2022-12-06T19:11:42.703Z,3.30
2022-12-06T19:14:10.265Z,3.40
2022-12-06T19:16:40.592Z,3.40
2022-12-06T19:19:16.100Z,3.40
2022-12-06T19:21:45.152Z,3.60
2022-12-06T19:24:13.202Z,3.70
2022-12-06T19:26:40.301Z,3.50
2022-12-06T19:31:35.019Z,3.30
2022-12-06T19:34:02.050Z,3.40
2022-12-06T19:36:31.464Z,3.30
2022-12-06T19:39:04.546Z,3.40
2022-12-06T19:44:17.759Z,3.40
2022-12-06T19:46:45.894Z,3.50
2022-12-06T19:49:15.619Z,3.50
2022-12-06T19:51:44.184Z,3.50
2022-12-06T19:54:15.363Z,3.60
2022-12-06T19:59:12.331Z,3.50
2022-12-06T20:01:41.552Z,3.50
2022-12-06T20:04:09.228Z,3.60
2022-12-06T20:06:36.652Z,3.60
2022-12-06T20:09:05.043Z,3.60
2022-12-06T20:11:53.522Z,3.60
2022-12-06T20:14:21.032Z,3.60
2022-12-06T20:16:47.973Z,3.70
2022-12-06T20:19:15.706Z,3.70
2022-12-06T20:21:43.304Z,3.90
2022-12-06T20:24:12.365Z,3.90
2022-12-06T20:26:39.570Z,3.80
2022-12-06T20:29:06.587Z,3.80
2022-12-06T20:31:33.957Z,3.80
2022-12-06T20:34:02.935Z,3.80
2022-12-06T20:36:32.018Z,3.80
2022-12-06T20:39:00.404Z,3.80
2022-12-06T20:41:30.481Z,3.80
2022-12-06T20:43:58.155Z,3.70
2022-12-06T20:46:30.287Z,3.70
2022-12-06T20:49:02.490Z,3.60
2022-12-06T20:51:31.156Z,3.60
2022-12-06T20:54:00.322Z,3.80
2022-12-06T20:56:29.625Z,3.90
2022-12-06T20:58:59.108Z,3.70
2022-12-06T21:01:29.046Z,3.70
2022-12-06T21:03:56.126Z,3.80
2022-12-06T21:06:24.832Z,3.70
2022-12-06T21:08:53.530Z,3.80
2022-12-06T21:11:24.414Z,3.80
2022-12-06T21:13:56.990Z,4.00
2022-12-06T21:16:30.187Z,4.00
2022-12-06T21:19:10.412Z,3.90
2022-12-06T21:21:39.649Z,4.00
2022-12-06T21:24:10.239Z,3.90
2022-12-06T21:29:04.973Z,3.90
2022-12-06T21:31:34.955Z,3.70
2022-12-06T21:34:02.466Z,3.80
2022-12-06T21:36:29.371Z,3.90
2022-12-06T21:38:56.445Z,3.80
2022-12-06T21:41:23.636Z,3.80
2022-12-06T21:43:50.773Z,3.70
2022-12-06T21:46:20.735Z,3.80
2022-12-06T21:48:56.242Z,3.80
2022-12-06T21:51:24.777Z,3.80
2022-12-06T21:56:21.007Z,3.80
2022-12-06T21:58:48.758Z,3.80
2022-12-06T22:01:20.932Z,3.80
2022-12-06T22:03:49.453Z,3.90
2022-12-06T22:06:16.315Z,3.80
2022-12-06T22:08:45.996Z,3.80
2022-12-06T22:11:15.337Z,3.80
2022-12-06T22:16:10.914Z,3.90
2022-12-06T22:18:44.889Z,4.00
2022-12-06T22:21:20.959Z,3.90
2022-12-06T22:23:48.224Z,3.90
2022-12-06T22:26:17.461Z,3.90
2022-12-06T22:28:44.352Z,3.90
2022-12-06T22:31:15.973Z,3.70
2022-12-06T22:33:43.486Z,3.90
2022-12-06T22:36:11.254Z,4.10
2022-12-06T22:38:38.082Z,4.00
2022-12-06T22:41:05.810Z,4.00
2022-12-06T22:43:33.461Z,4.00
2022-12-06T22:46:09.695Z,4.00
2022-12-06T22:48:36.895Z,3.90
2022-12-06T22:51:17.827Z,3.80
2022-12-06T22:53:52.454Z,3.90
2022-12-06T22:56:19.322Z,4.00
2022-12-06T22:58:47.249Z,3.80
2022-12-06T23:01:17.340Z,3.80
2022-12-06T23:03:49.047Z,3.80
2022-12-06T23:06:17.765Z,3.90
2022-12-06T23:08:45.556Z,3.80
2022-12-06T23:11:18.792Z,4.00
2022-12-06T23:13:46.158Z,4.00
2022-12-06T23:16:18.041Z,4.00
2022-12-06T23:18:45.415Z,4.00
2022-12-06T23:21:13.364Z,3.90
2022-12-06T23:23:41.927Z,3.90
2022-12-06T23:26:17.046Z,3.90
2022-12-06T23:28:44.599Z,3.90
2022-12-06T23:31:23.059Z,3.80
2022-12-06T23:33:54.071Z,3.80
2022-12-06T23:36:23.463Z,4.00
2022-12-06T23:38:51.532Z,3.90
2022-12-06T23:41:21.093Z,4.00
2022-12-06T23:46:21.914Z,4.20
2022-12-06T23:48:49.741Z,4.20
2022-12-06T23:51:19.134Z,4.40
2022-12-06T23:53:50.723Z,4.30
2022-12-06T23:56:19.720Z,4.40
